Time;durP1;ratioP1;P1;durP2;ratioP2;P2;SDS_P1;SDS_P2;PMS_P1;PMS_P2;Temp;Humidity;BMP_temperature;BMP_pressure;BME280_temperature;BME280_humidity;BME280_pressure;Samples;Min_cycle;Max_cycle;Signal;HPM_P1;HPM_P2
2023/07/25 00:02:23;;;;;;;22.17;20.40;;;;;;;25.24;46.98;98853.78;4975301;28;96705;-72
2023/07/25 00:04:49;;;;;;;22.40;20.45;;;;;;;25.21;47.21;98854.13;4974640;28;97256;-72
2023/07/25 00:07:15;;;;;;;23.13;21.42;;;;;;;25.22;47.15;98849.59;4975361;28;98685;-72
2023/07/25 00:09:40;;;;;;;22.35;20.52;;;;;;;25.19;47.17;98852.66;4973736;28;98476;-72
2023/07/25 00:12:06;;;;;;;22.05;20.20;;;;;;;25.16;47.30;98864.63;4975531;28;96664;-72
2023/07/25 00:14:33;;;;;;;22.00;20.00;;;;;;;25.13;47.34;98872.13;4975702;28;97231;-71
2023/07/25 00:16:59;;;;;;;22.50;20.60;;;;;;;25.12;47.58;98871.31;4975812;28;98796;-72
2023/07/25 00:19:25;;;;;;;22.55;20.73;;;;;;;25.05;47.41;98884.63;4984284;28;98466;-72
2023/07/25 00:21:51;;;;;;;22.45;20.55;;;;;;;25.02;47.92;98879.63;4990248;28;96737;-72
2023/07/25 00:24:17;;;;;;;21.45;19.70;;;;;;;25.02;47.82;98878.78;4977798;28;96799;-72
2023/07/25 00:26:42;;;;;;;22.70;20.50;;;;;;;24.99;48.06;98879.97;4983625;28;98590;-72
2023/07/25 00:29:08;;;;;;;22.85;21.02;;;;;;;24.96;48.15;98888.41;4973690;28;97230;-72
2023/07/25 00:31:33;;;;;;;21.75;19.95;;;;;;;24.94;47.99;98882.34;4975498;28;96659;-72
2023/07/25 00:33:59;;;;;;;22.30;20.27;;;;;;;24.93;48.16;98890.56;4975526;28;97289;-72
2023/07/25 00:36:25;;;;;;;21.40;19.67;;;;;;;24.88;48.18;98885.75;4973212;28;101061;-72
2023/07/25 00:38:50;;;;;;;21.90;19.65;;;;;;;24.89;47.97;98886.59;4975550;28;97133;-72
2023/07/25 00:41:16;;;;;;;22.52;20.70;;;;;;;24.87;47.79;98884.09;4973720;28;97353;-72
2023/07/25 00:43:41;;;;;;;21.15;19.30;;;;;;;24.86;47.79;98890.47;4977626;28;96912;-72
2023/07/25 00:46:07;;;;;;;21.35;19.65;;;;;;;24.82;47.44;98887.31;4981863;28;99086;-72
2023/07/25 00:48:33;;;;;;;20.58;18.55;;;;;;;24.78;47.48;98894.06;4978232;28;99893;-72
2023/07/25 00:50:58;;;;;;;20.20;18.55;;;;;;;24.76;47.32;98896.06;4973230;28;96905;-72
2023/07/25 00:53:25;;;;;;;20.95;19.23;;;;;;;24.74;47.51;98899.94;4975854;28;96813;-72
2023/07/25 00:55:51;;;;;;;21.58;19.80;;;;;;;24.71;47.55;98897.63;4981458;28;98727;-72
2023/07/25 00:58:17;;;;;;;20.55;18.60;;;;;;;24.69;47.55;98896.94;4974968;28;98653;-72
2023/07/25 01:00:43;;;;;;;20.65;19.10;;;;;;;24.67;47.66;98898.97;4982327;28;96874;-72
2023/07/25 01:03:09;;;;;;;20.55;18.92;;;;;;;24.65;47.52;98890.28;4976693;28;96755;-72
2023/07/25 01:05:39;;;;;;;20.52;18.92;;;;;;;24.62;47.70;98894.16;4966735;28;100481;-72
2023/07/25 01:08:05;;;;;;;20.47;18.50;;;;;;;24.62;47.86;98896.81;4971867;28;100208;-72
2023/07/25 01:10:32;;;;;;;21.13;19.13;;;;;;;24.59;47.84;98895.34;4974914;28;97465;-71
2023/07/25 01:12:58;;;;;;;20.48;18.95;;;;;;;24.57;47.67;98891.97;4986754;28;97993;-71
2023/07/25 01:15:24;;;;;;;20.23;18.83;;;;;;;24.55;48.10;98890.47;4974062;28;97392;-71
2023/07/25 01:17:50;;;;;;;21.85;19.77;;;;;;;24.51;48.33;98895.38;4972142;28;100371;-71
2023/07/25 01:20:16;;;;;;;19.85;18.35;;;;;;;24.49;48.08;98892.03;4986364;28;97319;-71
2023/07/25 01:22:42;;;;;;;21.67;19.70;;;;;;;24.49;48.23;98896.56;4983488;28;96938;-72
2023/07/25 01:25:08;;;;;;;21.02;19.15;;;;;;;24.44;48.15;98888.22;4972103;28;98655;-72
2023/07/25 01:27:33;;;;;;;21.65;20.05;;;;;;;24.43;48.23;98892.72;4976619;28;100701;-72
2023/07/25 01:29:59;;;;;;;26.40;19.33;;;;;;;24.40;48.32;98888.53;4983854;28;97222;-71
2023/07/25 01:32:25;;;;;;;21.10;18.80;;;;;;;24.37;48.30;98896.09;4987484;28;97073;-71
2023/07/25 01:34:50;;;;;;;19.70;18.17;;;;;;;24.36;48.24;98900.63;4972901;28;98545;-72
2023/07/25 01:37:16;;;;;;;21.80;19.80;;;;;;;24.32;48.59;98902.00;4972479;28;100337;-71
2023/07/25 01:39:43;;;;;;;19.92;18.25;;;;;;;24.31;48.25;98908.34;4973335;28;97006;-71
2023/07/25 01:42:09;;;;;;;20.13;18.70;;;;;;;24.30;48.42;98914.72;4970092;28;97195;-71
2023/07/25 01:44:35;;;;;;;21.67;19.92;;;;;;;24.27;48.41;98919.59;4981512;28;98828;-71
2023/07/25 01:47:00;;;;;;;21.00;19.20;;;;;;;24.24;48.45;98922.63;4991797;28;98464;-71
2023/07/25 01:49:26;;;;;;;20.20;18.52;;;;;;;24.22;48.41;98917.44;4993111;28;97379;-71
2023/07/25 01:51:51;;;;;;;20.25;18.50;;;;;;;24.18;48.59;98913.44;4978110;28;96844;-71
2023/07/25 01:54:18;;;;;;;19.58;17.98;;;;;;;24.15;48.43;98930.69;4987065;28;97447;-72
2023/07/25 01:56:45;;;;;;;20.65;18.92;;;;;;;24.15;48.40;98919.97;4979683;28;99787;-71
2023/07/25 01:59:11;;;;;;;20.70;18.73;;;;;;;24.15;48.26;98924.50;4982255;28;96807;-71
2023/07/25 02:01:37;;;;;;;19.45;17.95;;;;;;;24.12;48.58;98928.38;4985486;28;96895;-71
2023/07/25 02:04:02;;;;;;;21.00;19.02;;;;;;;24.09;48.26;98920.69;4985401;28;98924;-71
2023/07/25 02:06:28;;;;;;;19.98;18.35;;;;;;;24.06;48.24;98906.78;4976673;28;98260;-72
2023/07/25 02:08:54;;;;;;;20.65;18.63;;;;;;;24.05;48.38;98913.13;4975208;28;96956;-71
2023/07/25 02:11:19;;;;;;;19.48;17.98;;;;;;;24.02;48.57;98910.81;4977222;28;97489;-71
2023/07/25 02:13:44;;;;;;;20.25;18.15;;;;;;;23.99;48.61;98916.50;4983052;28;100686;-71
2023/07/25 02:16:10;;;;;;;19.90;18.00;;;;;;;23.98;48.25;98929.09;4981959;28;98432;-71
2023/07/25 02:18:36;;;;;;;19.63;17.90;;;;;;;23.92;48.20;98929.78;4979475;28;98898;-72
2023/07/25 02:21:02;;;;;;;19.25;17.80;;;;;;;23.86;48.09;98933.13;4994834;28;97167;-72
2023/07/25 02:23:28;;;;;;;18.88;17.58;;;;;;;23.87;48.12;98924.91;4987228;28;98682;-72
2023/07/25 02:25:53;;;;;;;20.10;18.50;;;;;;;23.85;47.99;98931.44;4981996;28;100141;-72
2023/07/25 02:28:19;;;;;;;19.48;17.85;;;;;;;23.82;48.20;98924.56;4982037;28;96684;-72
2023/07/25 02:30:47;;;;;;;19.58;17.98;;;;;;;23.83;47.96;98923.59;4976856;28;96809;-72
2023/07/25 02:33:13;;;;;;;18.13;16.73;;;;;;;23.80;47.97;98917.75;4976508;28;98580;-71
2023/07/25 02:35:39;;;;;;;18.42;17.00;;;;;;;23.77;47.91;98912.72;4975772;28;98451;-72
2023/07/25 02:38:05;;;;;;;19.60;17.83;;;;;;;23.78;47.53;98922.44;4976379;28;96741;-71
2023/07/25 02:40:30;;;;;;;18.98;17.67;;;;;;;23.76;47.85;98919.06;4977775;28;96837;-71
2023/07/25 02:42:56;;;;;;;20.35;18.63;;;;;;;23.73;48.00;98920.25;4987577;28;98531;-71
2023/07/25 02:45:21;;;;;;;19.05;17.55;;;;;;;23.71;47.99;98922.28;4974441;28;98511;-71
2023/07/25 02:47:47;;;;;;;18.83;17.42;;;;;;;23.68;48.08;98927.94;4989435;28;96866;-71
2023/07/25 02:50:12;;;;;;;19.10;17.80;;;;;;;23.70;48.01;98918.75;4976216;28;96875;-71
2023/07/25 02:52:38;;;;;;;20.42;19.02;;;;;;;23.63;48.06;98919.59;4979251;28;98572;-72
2023/07/25 02:55:05;;;;;;;19.67;17.85;;;;;;;23.60;48.18;98917.25;4986158;28;97871;-72
2023/07/25 02:57:30;;;;;;;18.98;17.58;;;;;;;23.60;48.12;98914.56;4983858;28;96795;-71
2023/07/25 02:59:56;;;;;;;19.73;18.25;;;;;;;23.56;48.27;98908.72;4981804;28;97430;-72
2023/07/25 03:02:21;;;;;;;19.45;18.10;;;;;;;23.55;48.02;98914.22;4974410;28;98699;-71
2023/07/25 03:04:47;;;;;;;19.35;17.95;;;;;;;23.49;48.25;98916.56;4975316;28;98400;-71
2023/07/25 03:07:12;;;;;;;19.30;17.70;;;;;;;23.48;48.35;98914.91;4976016;28;96920;-71
2023/07/25 03:09:40;;;;;;;19.92;18.48;;;;;;;23.48;48.43;98917.59;4975717;28;97228;-71
2023/07/25 03:12:06;;;;;;;20.95;19.35;;;;;;;23.49;48.34;98923.78;4993072;28;98709;-71
2023/07/25 03:14:31;;;;;;;19.65;18.13;;;;;;;23.44;48.40;98916.22;4980027;28;98357;-71
2023/07/25 03:16:57;;;;;;;19.38;17.88;;;;;;;23.40;48.47;98922.94;4975914;28;97317;-71
2023/07/25 03:19:22;;;;;;;18.52;17.15;;;;;;;23.41;48.30;98926.44;4986463;28;97480;-71
2023/07/25 03:21:48;;;;;;;18.58;17.33;;;;;;;23.39;48.35;98918.59;4994227;28;98376;-72
2023/07/25 03:24:13;;;;;;;19.05;17.75;;;;;;;23.36;48.23;98926.97;4993234;28;98364;-71
2023/07/25 03:26:39;;;;;;;18.25;16.95;;;;;;;23.35;48.30;98921.78;4976047;28;96707;-72
2023/07/25 03:29:04;;;;;;;18.45;17.23;;;;;;;23.33;48.27;98918.41;4976804;28;96965;-71
2023/07/25 03:31:30;;;;;;;19.20;17.95;;;;;;;23.33;48.56;98929.13;4981408;28;99166;-71
2023/07/25 03:33:56;;;;;;;19.52;17.90;;;;;;;23.30;48.33;98924.97;4979991;28;98372;-72
2023/07/25 03:36:39;;;;;;;19.02;17.58;;;;;;;23.24;48.59;98917.56;4980392;28;96929;-72
2023/07/25 03:39:05;;;;;;;19.05;17.63;;;;;;;23.25;48.48;98922.78;4978761;28;96761;-72
2023/07/25 03:41:30;;;;;;;18.27;16.95;;;;;;;23.27;48.52;98925.28;4992063;28;99043;-72
2023/07/25 03:43:56;;;;;;;18.05;16.85;;;;;;;23.27;48.58;98934.16;4979896;28;97704;-71
2023/07/25 03:46:21;;;;;;;16.90;15.88;;;;;;;23.26;48.44;98929.78;4975575;28;97097;-71
2023/07/25 03:48:47;;;;;;;17.42;16.40;;;;;;;23.25;48.66;98933.50;4978518;28;97337;-72
2023/07/25 03:51:12;;;;;;;17.55;15.90;;;;;;;23.25;48.49;98927.31;4984823;28;98655;-71
2023/07/25 03:53:38;;;;;;;17.35;15.60;;;;;;;23.25;48.69;98927.31;4984949;28;100553;-71
2023/07/25 03:56:04;;;;;;;18.13;16.77;;;;;;;23.22;48.75;98938.34;4985544;28;96674;-71
2023/07/25 03:58:29;;;;;;;18.38;17.13;;;;;;;23.25;48.76;98941.53;4973183;28;97285;-72
2023/07/25 04:00:55;;;;;;;17.45;16.35;;;;;;;23.30;48.51;98948.19;4974563;28;98615;-71
2023/07/25 04:03:20;;;;;;;18.35;17.10;;;;;;;23.31;48.54;98944.53;4979135;28;97618;-71
2023/07/25 04:05:46;;;;;;;17.90;16.77;;;;;;;23.36;48.49;98944.84;4975096;28;97349;-72
2023/07/25 04:08:11;;;;;;;17.80;16.70;;;;;;;23.33;48.53;98947.88;4977310;28;97115;-72
2023/07/25 04:10:37;;;;;;;18.40;17.20;;;;;;;23.28;48.64;98954.56;4974551;28;100364;-72
2023/07/25 04:13:03;;;;;;;18.85;17.45;;;;;;;23.27;48.43;98954.72;4973447;28;100110;-72
2023/07/25 04:15:29;;;;;;;18.17;16.77;;;;;;;23.32;48.63;98960.41;4974959;28;97789;-72
2023/07/25 04:17:54;;;;;;;17.75;16.42;;;;;;;23.36;48.53;98974.31;4986936;28;96953;-72
2023/07/25 04:20:20;;;;;;;19.23;18.02;;;;;;;23.39;48.70;98982.03;4973693;28;98750;-72
2023/07/25 04:22:45;;;;;;;19.08;17.88;;;;;;;23.42;48.45;98982.53;4976466;28;98524;-72
2023/07/25 04:25:11;;;;;;;18.05;16.95;;;;;;;23.38;48.58;98989.19;4989034;28;97204;-72
2023/07/25 04:27:36;;;;;;;18.48;17.38;;;;;;;23.44;48.42;98990.38;4989812;28;97107;-71
2023/07/25 04:30:02;;;;;;;19.50;17.90;;;;;;;23.53;48.40;98984.00;4987854;28;99189;-72
2023/07/25 04:32:28;;;;;;;18.88;17.67;;;;;;;23.62;48.25;98993.75;4984773;28;100423;-71
2023/07/25 04:34:53;;;;;;;19.85;18.65;;;;;;;23.71;48.08;98997.28;4981686;28;96673;-72
2023/07/25 04:37:19;;;;;;;18.88;17.67;;;;;;;23.80;47.89;99001.63;4979552;28;96702;-72
2023/07/25 04:39:44;;;;;;;18.60;17.10;;;;;;;23.87;47.85;98997.25;4982010;28;98738;-72
2023/07/25 04:42:10;;;;;;;18.92;17.63;;;;;;;23.95;47.90;99002.59;4974103;28;100629;-71
2023/07/25 04:44:35;;;;;;;19.02;17.58;;;;;;;24.06;47.75;98985.34;4985262;28;96885;-72
2023/07/25 04:47:01;;;;;;;17.90;16.73;;;;;;;24.18;47.36;98967.06;4977599;28;97263;-72
2023/07/25 04:49:26;;;;;;;18.50;17.25;;;;;;;24.29;47.43;98963.16;4973125;28;99160;-72
2023/07/25 04:51:52;;;;;;;19.13;17.83;;;;;;;24.39;47.25;98978.03;4974036;28;98587;-72
2023/07/25 04:54:17;;;;;;;19.02;17.50;;;;;;;24.49;47.15;98977.84;4989637;28;97359;-72
2023/07/25 04:56:44;;;;;;;18.50;17.13;;;;;;;24.60;47.16;98977.47;4978711;28;97073;-72
2023/07/25 04:59:09;;;;;;;18.42;17.10;;;;;;;24.70;46.72;98979.97;4973213;28;99037;-72
2023/07/25 05:01:36;;;;;;;18.90;17.20;;;;;;;24.82;46.50;98988.44;4973909;28;100233;-72
2023/07/25 05:04:02;;;;;;;19.05;17.75;;;;;;;24.92;46.22;99002.47;4968439;28;96888;-72
2023/07/25 05:06:27;;;;;;;19.02;17.73;;;;;;;25.03;46.28;98998.56;4974099;28;97328;-72
2023/07/25 05:08:53;;;;;;;18.05;16.95;;;;;;;25.13;45.84;98995.63;4976050;28;99242;-72
2023/07/25 05:11:18;;;;;;;18.13;16.80;;;;;;;25.25;45.91;98994.25;4975160;28;98475;-72
2023/07/25 05:13:44;;;;;;;18.92;17.63;;;;;;;25.38;45.84;98980.22;4986218;28;96613;-71
2023/07/25 05:16:09;;;;;;;18.65;17.13;;;;;;;25.50;45.70;98968.03;4972930;28;97244;-72
2023/07/25 05:18:35;;;;;;;17.58;16.40;;;;;;;25.61;45.17;98969.47;4970581;28;98961;-72
2023/07/25 05:21:00;;;;;;;18.02;16.83;;;;;;;25.73;45.05;98965.31;4974521;28;98365;-72
2023/07/25 05:23:26;;;;;;;19.30;17.92;;;;;;;25.83;44.55;98959.69;4979005;28;96728;-72
2023/07/25 05:25:51;;;;;;;18.50;17.30;;;;;;;26.01;44.61;98975.50;4973673;28;96815;-72
2023/07/25 05:28:18;;;;;;;18.80;17.52;;;;;;;26.13;44.22;98977.53;4983194;28;97708;-72
2023/07/25 05:30:44;;;;;;;18.42;17.23;;;;;;;26.32;44.14;98986.06;4975446;28;98232;-72
2023/07/25 05:33:09;;;;;;;17.10;16.10;;;;;;;26.51;43.66;98990.09;4976742;28;97062;-72
2023/07/25 05:35:35;;;;;;;19.33;17.80;;;;;;;26.70;43.11;98989.50;4982806;28;96799;-72
2023/07/25 05:38:01;;;;;;;17.63;16.52;;;;;;;26.97;42.58;98984.44;4975024;28;98607;-72
2023/07/25 05:40:27;;;;;;;18.90;17.60;;;;;;;27.30;42.03;98988.34;4978810;28;98639;-71
2023/07/25 05:42:52;;;;;;;18.38;17.10;;;;;;;27.61;41.19;98986.34;4973784;28;97072;-72
2023/07/25 05:45:18;;;;;;;18.17;17.08;;;;;;;28.13;40.74;98979.69;4973703;28;97562;-71
2023/07/25 05:47:43;;;;;;;18.73;17.63;;;;;;;28.73;39.64;98999.75;4981710;28;98868;-72
2023/07/25 05:50:09;;;;;;;18.67;17.38;;;;;;;29.48;38.69;98983.56;4974666;28;98457;-72
2023/07/25 05:52:35;;;;;;;18.10;17.00;;;;;;;30.41;37.08;98986.25;4981903;28;97033;-74
2023/07/25 05:55:00;;;;;;;17.58;16.48;;;;;;;32.07;34.64;98977.13;4984279;28;97321;-89
2023/07/25 05:57:26;;;;;;;18.23;17.13;;;;;;;33.84;31.97;98962.44;4974813;28;98628;-89
2023/07/25 05:59:51;;;;;;;18.05;16.75;;;;;;;35.11;30.64;98972.56;4987040;28;99065;-91
2023/07/25 06:02:17;;;;;;;18.20;16.90;;;;;;;36.09;29.27;98968.72;4977659;28;97174;-90
2023/07/25 06:04:45;;;;;;;18.02;16.92;;;;;;;36.73;28.02;98977.22;4984580;28;97659;-89
2023/07/25 06:07:14;;;;;;;18.63;17.33;;;;;;;37.65;27.13;98988.31;4976159;28;99092;-89
2023/07/25 06:09:40;;;;;;;18.13;17.03;;;;;;;37.66;26.77;98977.09;4978545;28;98471;-89
2023/07/25 06:12:09;;;;;;;17.48;16.48;;;;;;;38.34;26.11;98979.19;4977954;28;96688;-89
2023/07/25 06:14:35;;;;;;;18.08;17.08;;;;;;;38.97;25.60;98966.31;4977172;28;97760;-89
2023/07/25 06:17:01;;;;;;;19.23;17.95;;;;;;;39.64;24.44;98971.91;4982913;28;98695;-90
2023/07/25 06:19:26;;;;;;;18.48;17.27;;;;;;;40.07;24.34;98976.00;4990540;28;98364;-90
2023/07/25 06:21:52;;;;;;;18.38;17.27;;;;;;;40.42;23.82;98975.09;4987815;28;97003;-89
2023/07/25 06:24:19;;;;;;;19.08;17.58;;;;;;;40.77;23.60;98975.25;4977197;28;97329;-89
2023/07/25 06:26:44;;;;;;;18.38;17.27;;;;;;;41.17;22.95;98983.28;4985376;28;98990;-89
2023/07/25 06:29:10;;;;;;;18.48;17.30;;;;;;;41.37;22.71;98976.81;4979150;28;98581;-89
2023/07/25 06:31:36;;;;;;;19.25;18.08;;;;;;;40.92;22.57;98988.91;4982329;28;96763;-90
2023/07/25 06:34:02;;;;;;;18.60;17.30;;;;;;;40.33;23.09;98990.50;4984035;28;97341;-90
2023/07/25 06:36:27;;;;;;;18.88;17.58;;;;;;;40.85;22.80;98999.41;4981730;28;97549;-89
2023/07/25 06:38:53;;;;;;;19.02;17.92;;;;;;;40.75;22.72;98994.75;4982913;28;98663;-89
2023/07/25 06:41:18;;;;;;;18.50;17.30;;;;;;;41.33;22.35;98999.66;4974692;28;96814;-76
2023/07/25 06:43:44;;;;;;;17.75;16.75;;;;;;;41.97;21.95;99006.88;4972328;28;97784;-81
2023/07/25 06:46:10;;;;;;;18.63;17.52;;;;;;;42.53;21.64;99005.47;4974619;28;100628;-81
2023/07/25 06:48:35;;;;;;;17.95;16.85;;;;;;;42.63;21.09;98996.28;4979773;28;98686;-80
2023/07/25 06:51:01;;;;;;;18.73;17.58;;;;;;;42.57;21.42;99014.81;4982327;28;96740;-81
2023/07/25 06:53:26;;;;;;;18.33;17.23;;;;;;;42.61;21.12;99007.59;4990330;28;96875;-81
2023/07/25 06:55:52;;;;;;;18.48;17.35;;;;;;;42.58;20.81;99016.44;4980649;28;98780;-81
2023/07/25 06:58:17;;;;;;;18.48;17.38;;;;;;;42.90;20.58;99020.47;4981986;28;98445;-80
2023/07/25 07:00:45;;;;;;;18.38;17.08;;;;;;;43.09;20.44;99013.03;4982607;28;96747;-81
2023/07/25 07:03:11;;;;;;;18.95;17.85;;;;;;;42.05;21.28;99016.47;4975861;28;97349;-80
2023/07/25 07:05:36;;;;;;;18.17;17.13;;;;;;;41.58;21.82;99010.53;4978147;28;98515;-80
2023/07/25 07:08:02;;;;;;;17.67;16.50;;;;;;;41.82;21.33;99015.28;4977768;28;98384;-80
2023/07/25 07:10:27;;;;;;;18.52;17.20;;;;;;;42.19;21.25;99017.41;4975423;28;96709;-80
2023/07/25 07:12:53;;;;;;;18.60;17.48;;;;;;;42.69;21.06;99001.41;4980641;28;98207;-80
2023/07/25 07:15:24;;;;;;;18.38;17.17;;;;;;;43.24;20.48;98994.66;4988807;28;98655;-80
2023/07/25 07:17:52;;;;;;;18.55;17.45;;;;;;;43.03;20.38;98985.81;4985823;28;98629;-81
2023/07/25 07:20:18;;;;;;;18.38;17.17;;;;;;;42.78;20.55;98973.22;4977979;28;96802;-80
2023/07/25 07:22:44;;;;;;;17.55;16.52;;;;;;;42.69;20.73;98970.25;4989555;28;96962;-80
2023/07/25 07:25:09;;;;;;;17.77;16.67;;;;;;;42.67;20.79;98966.97;4978992;28;98717;-80
2023/07/25 07:27:35;;;;;;;18.63;17.63;;;;;;;42.50;20.71;98956.44;4979376;28;98555;-80
2023/07/25 07:30:00;;;;;;;18.58;17.58;;;;;;;41.22;21.67;98949.38;4985964;28;96747;-80
2023/07/25 07:32:26;;;;;;;18.23;16.98;;;;;;;39.88;23.14;98944.72;4979504;28;96788;-80
2023/07/25 07:34:51;;;;;;;18.98;17.63;;;;;;;40.36;22.89;98926.75;4978611;28;99542;-80
2023/07/25 07:37:17;;;;;;;18.55;17.45;;;;;;;41.91;21.28;98905.31;4978731;28;98208;-80
2023/07/25 07:39:42;;;;;;;18.50;17.40;;;;;;;43.07;20.37;98880.03;4982310;28;96728;-80
2023/07/25 07:42:08;;;;;;;16.90;15.95;;;;;;;43.51;19.91;98883.47;4978278;28;96823;-80
2023/07/25 07:44:33;;;;;;;17.50;16.50;;;;;;;44.14;19.62;98885.59;4975370;28;98664;-80
2023/07/25 07:46:59;;;;;;;18.15;17.15;;;;;;;45.32;18.63;98899.56;4978689;28;98969;-81
2023/07/25 07:49:24;;;;;;;19.13;17.80;;;;;;;46.20;18.04;98910.78;4975086;28;97261;-80
2023/07/25 07:51:50;;;;;;;18.77;17.67;;;;;;;47.01;17.08;98906.63;4975365;28;97106;-81
2023/07/25 07:54:15;;;;;;;18.38;17.27;;;;;;;47.64;16.47;98915.41;4987681;28;98535;-81
2023/07/25 07:56:41;;;;;;;18.20;17.02;;;;;;;46.91;16.73;98915.31;4974479;28;98338;-81
2023/07/25 07:59:07;;;;;;;18.75;17.65;;;;;;;45.54;18.04;98920.91;4974956;28;97165;-82
2023/07/25 08:01:32;;;;;;;18.63;17.42;;;;;;;44.10;18.70;98939.84;4974943;28;97055;-81
2023/07/25 08:03:58;;;;;;;18.58;17.48;;;;;;;43.83;18.93;98935.91;4974108;28;98643;-81
2023/07/25 08:06:23;;;;;;;18.30;17.00;;;;;;;42.39;20.42;98935.66;4975497;28;98726;-81
2023/07/25 08:08:49;;;;;;;20.45;19.25;;;;;;;41.01;21.15;98943.16;4974506;28;97311;-80
2023/07/25 08:11:14;;;;;;;18.08;16.98;;;;;;;41.05;21.54;98949.78;4975374;28;97043;-81
2023/07/25 08:13:40;;;;;;;18.25;17.15;;;;;;;41.50;21.12;98942.31;4974359;28;98463;-81
2023/07/25 08:16:05;;;;;;;19.05;17.85;;;;;;;40.82;21.71;98944.97;4974190;28;98478;-81
2023/07/25 08:18:31;;;;;;;18.73;17.63;;;;;;;40.81;21.65;98946.88;4974195;28;96701;-81
2023/07/25 08:20:57;;;;;;;18.50;17.40;;;;;;;40.54;21.62;98958.25;4975276;28;96879;-80
2023/07/25 08:23:23;;;;;;;18.45;17.35;;;;;;;40.63;21.89;98962.09;4989199;28;98453;-80
2023/07/25 08:25:49;;;;;;;18.70;17.42;;;;;;;39.86;22.54;98966.16;4974788;28;98630;-81
2023/07/25 08:28:15;;;;;;;19.60;18.48;;;;;;;39.34;23.03;98974.38;4975792;28;97168;-80
2023/07/25 08:30:42;;;;;;;19.15;18.02;;;;;;;38.67;22.88;98984.31;4976586;28;97247;-80
2023/07/25 08:33:07;;;;;;;18.40;17.30;;;;;;;38.45;23.74;98986.41;4980197;28;99122;-80
2023/07/25 08:35:33;;;;;;;17.85;16.85;;;;;;;38.45;23.77;98989.16;4972781;28;98329;-80
2023/07/25 08:37:58;;;;;;;19.88;18.67;;;;;;;38.57;23.90;98980.69;4974732;28;96843;-81
2023/07/25 08:40:24;;;;;;;19.63;18.25;;;;;;;37.98;24.14;98982.56;4977232;28;97045;-81
2023/07/25 08:42:50;;;;;;;18.45;17.35;;;;;;;37.41;25.08;98985.06;4966344;28;98828;-81
2023/07/25 08:45:17;;;;;;;19.15;18.02;;;;;;;36.84;25.32;98980.91;4973407;28;98671;-81
2023/07/25 08:47:45;;;;;;;18.75;17.55;;;;;;;37.15;25.08;98984.84;4972791;28;97229;-81
2023/07/25 08:50:17;;;;;;;17.83;16.73;;;;;;;37.02;25.55;98980.59;4973919;28;97346;-81
2023/07/25 08:52:49;;;;;;;20.45;18.98;;;;;;;36.55;25.58;98970.19;4977543;28;98593;-81
2023/07/25 08:55:16;;;;;;;19.58;18.45;;;;;;;37.18;25.08;98973.38;4982660;28;98465;-82
2023/07/25 08:57:42;;;;;;;20.00;18.83;;;;;;;37.51;25.12;98961.38;4972315;28;96800;-79
2023/07/25 09:00:08;;;;;;;19.52;18.30;;;;;;;37.11;25.38;98962.63;4985218;28;96948;-82
2023/07/25 09:02:33;;;;;;;19.55;18.35;;;;;;;37.24;25.36;98958.66;4983450;28;98519;-81
2023/07/25 09:05:00;;;;;;;19.60;18.30;;;;;;;37.24;25.61;98957.84;4971404;28;98287;-81
2023/07/25 09:07:26;;;;;;;20.33;18.92;;;;;;;36.97;25.62;98961.34;4971191;28;98068;-80
2023/07/25 09:09:51;;;;;;;18.92;17.83;;;;;;;36.86;25.89;98957.72;4972582;28;97326;-75
2023/07/25 09:12:17;;;;;;;19.40;18.10;;;;;;;36.65;26.43;98953.94;4971621;28;98897;-86
2023/07/25 09:14:43;;;;;;;19.40;18.27;;;;;;;36.41;27.27;98961.50;4985582;28;98694;-89
2023/07/25 09:17:08;;;;;;;19.63;18.35;;;;;;;36.22;27.15;98946.53;4973129;28;97613;-92
2023/07/25 09:19:34;;;;;;;18.70;17.60;;;;;;;36.04;27.34;98947.63;4987047;28;96855;-91
2023/07/25 09:22:00;;;;;;;21.52;19.50;;;;;;;35.87;27.58;98953.09;4992577;28;98840;-87
2023/07/25 09:24:38;;;;;;;18.50;17.42;;;;;;;35.74;27.20;98961.63;4989951;28;98508;-92
2023/07/25 09:27:15;;;;;;;18.73;17.52;;;;;;;35.58;27.51;98976.94;4985125;28;96645;-89
2023/07/25 09:29:41;;;;;;;18.77;17.67;;;;;;;35.42;27.81;98973.06;4982696;28;96701;-91
2023/07/25 09:32:18;;;;;;;18.52;17.42;;;;;;;35.28;27.91;98974.47;4978140;28;98901;-93
2023/07/25 09:34:45;;;;;;;18.30;17.13;;;;;;;35.13;27.45;98966.84;4981029;28;97638;-93
2023/07/25 09:37:10;;;;;;;18.55;17.35;;;;;;;35.03;27.68;98970.19;4979303;28;97864;-89
2023/07/25 09:39:36;;;;;;;18.52;17.23;;;;;;;34.89;28.45;98955.19;4977657;28;96896;-89
2023/07/25 09:42:02;;;;;;;18.42;17.33;;;;;;;34.71;28.63;98948.03;4982221;28;98677;-91
2023/07/25 09:44:36;;;;;;;19.63;17.98;;;;;;;34.53;28.44;98940.84;4975591;28;98747;-88
2023/07/25 09:47:02;;;;;;;17.58;16.33;;;;;;;34.33;28.18;98937.72;4977910;28;96751;-85
2023/07/25 09:49:27;;;;;;;18.15;16.65;;;;;;;34.16;28.84;98935.72;4975147;28;97998;-86
2023/07/25 09:52:00;;;;;;;18.05;16.95;;;;;;;34.03;29.20;98931.38;4974174;28;98757;-85
2023/07/25 09:54:26;;;;;;;17.73;16.63;;;;;;;33.85;29.18;98931.44;4986157;28;98835;-86
2023/07/25 09:56:52;;;;;;;16.95;15.95;;;;;;;33.60;29.11;98920.81;4982201;28;98168;-85
2023/07/25 09:59:17;;;;;;;17.95;16.75;;;;;;;33.51;29.70;98924.88;4973322;28;97178;-85
2023/07/25 10:01:43;;;;;;;18.00;17.00;;;;;;;33.39;29.77;98924.88;4977037;28;98706;-84
2023/07/25 10:04:09;;;;;;;17.58;16.23;;;;;;;33.34;29.50;98925.59;4976201;28;98436;-83
2023/07/25 10:06:35;;;;;;;17.60;16.48;;;;;;;33.27;29.40;98915.88;4971983;28;97233;-83
2023/07/25 10:09:01;;;;;;;18.70;17.50;;;;;;;33.13;29.62;98916.09;4972973;28;97155;-83
2023/07/25 10:11:28;;;;;;;17.88;16.77;;;;;;;33.05;30.14;98923.75;4972766;28;99087;-83
2023/07/25 10:13:54;;;;;;;19.25;18.00;;;;;;;32.86;29.79;98923.78;4981538;28;98573;-85
2023/07/25 10:16:21;;;;;;;18.83;17.52;;;;;;;32.80;29.67;98930.13;4972324;28;97085;-84
2023/07/25 10:18:54;;;;;;;18.98;17.67;;;;;;;32.72;29.95;98921.47;4975147;28;96821;-83
2023/07/25 10:21:26;;;;;;;18.52;17.40;;;;;;;32.70;30.31;98919.00;4978164;28;98619;-84
2023/07/25 10:23:57;;;;;;;19.45;18.15;;;;;;;32.67;30.48;98927.59;4981911;28;98371;-88
2023/07/25 10:26:23;;;;;;;19.10;18.00;;;;;;;32.62;30.61;98920.13;4980313;28;96653;-89
2023/07/25 10:28:49;;;;;;;19.65;18.35;;;;;;;32.59;30.48;98925.19;4979271;28;96792;-88
2023/07/25 10:31:30;;;;;;;18.65;17.42;;;;;;;32.51;30.29;98918.19;4977683;28;97612;-86
2023/07/25 10:33:59;;;;;;;19.48;18.13;;;;;;;32.45;30.68;98919.94;4980488;28;99765;-85
2023/07/25 10:36:25;;;;;;;19.08;17.77;;;;;;;32.43;30.56;98911.13;4978865;28;97033;-84
2023/07/25 10:38:52;;;;;;;19.20;18.00;;;;;;;32.28;29.88;98896.31;4976829;28;97273;-85
2023/07/25 10:41:21;;;;;;;19.13;17.92;;;;;;;32.23;30.57;98900.56;4976576;28;98596;-84
2023/07/25 10:43:51;;;;;;;18.67;17.48;;;;;;;32.19;30.85;98899.31;4981791;28;98567;-85
2023/07/25 10:46:20;;;;;;;17.95;16.83;;;;;;;32.17;31.11;98900.59;4973885;28;97161;-85
2023/07/25 10:48:51;;;;;;;19.13;17.80;;;;;;;32.11;30.85;98896.91;4986458;28;96849;-83
2023/07/25 10:51:18;;;;;;;19.35;18.15;;;;;;;32.01;30.84;98905.59;4982153;28;98700;-74
2023/07/25 10:54:09;;;;;;;18.88;17.40;;;;;;;31.86;30.77;98904.28;4981378;28;98404;-71
2023/07/25 10:56:38;;;;;;;18.48;17.23;;;;;;;31.75;30.90;98906.66;4987123;28;96698;-87
2023/07/25 10:59:04;;;;;;;17.60;16.50;;;;;;;31.68;30.76;98905.91;4989475;28;97126;-86
2023/07/25 11:01:47;;;;;;;18.27;17.00;;;;;;;31.60;31.35;98903.47;4987558;28;97914;-85
2023/07/25 11:04:28;;;;;;;26.15;23.83;;;;;;;31.51;31.61;98905.63;4978001;28;98325;-86
2023/07/25 11:07:13;;;;;;;26.45;23.90;;;;;;;31.38;31.59;98907.63;4979940;28;96796;-85
2023/07/25 11:09:41;;;;;;;21.13;19.63;;;;;;;31.30;31.29;98914.09;4990504;28;98739;-86
2023/07/25 11:12:06;;;;;;;20.25;18.85;;;;;;;31.22;31.30;98911.69;4973522;28;98712;-86
2023/07/25 11:14:33;;;;;;;21.42;19.85;;;;;;;31.16;31.16;98910.69;4982776;28;98495;-85